This is the latest recevied weather packets stored in our database for station/object SV9TNF-2. If no packets are shown the sender has not sent any weather packets the latest 10 day(s).
| Time | Temp. | Humidity | Pressure | Rain* | Wind** | Luminosity | Snow |
|---|---|---|---|---|---|---|---|
| 1777977782 | 25° C | 21% | 1024.4 hPa | 0 mm | 3.58 m/s, 176° | - | - |
| 1777977482 | 24.44° C | 18% | 1024.4 hPa | 0 mm | 1.79 m/s, 317° | - | - |
| 1777977182 | 25° C | 19% | 1024.4 hPa | 0 mm | 1.79 m/s, 342° | - | - |
| 1777976882 | 25° C | 21% | 1024.4 hPa | 0 mm | 2.68 m/s, 280° | - | - |
| 1777976582 | 24.44° C | 24% | 1024.4 hPa | 0 mm | 2.68 m/s, 343° | - | - |
| 1777976282 | 25.56° C | 24% | 1024.4 hPa | 0 mm | 1.34 m/s, 346° | - | - |
| 1777975982 | 24.44° C | 28% | 1024.4 hPa | 0 mm | 1.79 m/s, 332° | - | - |
| 1777975682 | 25.56° C | 28% | 1024.4 hPa | 0 mm | 3.13 m/s, 316° | - | - |
| 1777975382 | 24.44° C | 30% | 1024.4 hPa | 0 mm | 2.68 m/s, 288° | - | - |
| 1777975081 | 24.44° C | 34% | 1024.4 hPa | 0 mm | 2.68 m/s, 258° | - | - |
| 1777974782 | 23.33° C | 33% | 1024.4 hPa | 0 mm | 5.36 m/s, 14° | - | - |
| 1777974481 | 23.89° C | 30% | 1024.4 hPa | 0 mm | 3.58 m/s, 343° | - | - |
| 1777974181 | 24.44° C | 35% | 1024.4 hPa | 0 mm | 3.58 m/s, 302° | - | - |
| 1777973881 | 24.44° C | 37% | 1024.4 hPa | 0 mm | 3.13 m/s, 225° | - | - |
| 1777973581 | 24.44° C | 36% | 1024.7 hPa | 0 mm | 4.02 m/s, 305° | - | - |
| 1777973281 | 24.44° C | 36% | 1024.7 hPa | 0 mm | 4.92 m/s, 258° | - | - |
| 1777972981 | 23.89° C | 38% | 1024.7 hPa | 0 mm | 3.13 m/s, 265° | - | - |
| 1777972680 | 24.44° C | 35% | 1024.7 hPa | 0 mm | 2.68 m/s, 252° | - | - |
| 1777972380 | 24.44° C | 38% | 1024.7 hPa | 0 mm | 3.13 m/s, 333° | - | - |
| 1777972081 | 24.44° C | 38% | 1024.7 hPa | 0 mm | 3.13 m/s, 198° | - | - |
| 1777971780 | 23.89° C | 41% | 1024.7 hPa | 0 mm | 4.02 m/s, 295° | - | - |
| 1777971480 | 24.44° C | 39% | 1024.7 hPa | 0 mm | 4.02 m/s, 281° | - | - |
| 1777971180 | 24.44° C | 40% | 1024.7 hPa | 0 mm | 4.92 m/s, 278° | - | - |
| 1777970880 | 24.44° C | 38% | 1024.7 hPa | 0 mm | 4.02 m/s, 273° | - | - |
| 1777970580 | 25° C | 40% | 1024.7 hPa | 0 mm | 2.24 m/s, 273° | - | - |
* Rain latest hour (hover to see other rain measurements)
** Current wind speed in m/s (hover to see current wind gust speed)